createdAt,value
2022-12-04T00:00:26.041Z,44.00
2022-12-04T00:02:54.244Z,56.85
2022-12-04T00:05:21.110Z,45.08
2022-12-04T00:07:47.856Z,46.28
2022-12-04T00:10:14.608Z,54.53
2022-12-04T00:12:41.306Z,55.53
2022-12-04T00:15:24.947Z,52.05
2022-12-04T00:17:54.062Z,56.90
2022-12-04T00:20:20.779Z,61.17
2022-12-04T00:22:47.493Z,53.10
2022-12-04T00:25:14.290Z,54.08
2022-12-04T00:27:40.991Z,62.50
2022-12-04T00:30:08.811Z,51.08
2022-12-04T00:32:35.552Z,56.78
2022-12-04T00:35:04.086Z,52.08
2022-12-04T00:37:30.805Z,62.00
2022-12-04T00:39:57.727Z,41.75
2022-12-04T00:42:24.555Z,55.70
2022-12-04T00:44:51.214Z,51.40
2022-12-04T00:47:17.934Z,52.00
2022-12-04T00:49:44.646Z,35.45
2022-12-04T00:52:12.715Z,57.92
2022-12-04T00:54:39.409Z,57.53
2022-12-04T00:57:06.099Z,56.22
2022-12-04T00:59:32.784Z,59.35
2022-12-04T01:01:59.524Z,47.38
2022-12-04T01:04:26.299Z,55.22
2022-12-04T01:06:52.963Z,55.00
2022-12-04T01:09:21.032Z,46.58
2022-12-04T01:11:47.773Z,54.23
2022-12-04T01:14:14.598Z,58.83
2022-12-04T01:16:41.440Z,55.00
2022-12-04T01:19:11.169Z,51.28
2022-12-04T01:21:38.795Z,32.00
2022-12-04T01:24:06.291Z,55.42
2022-12-04T01:26:34.413Z,60.22
2022-12-04T01:29:01.270Z,63.47
2022-12-04T01:31:28.180Z,60.38
2022-12-04T01:33:54.919Z,55.38
2022-12-04T01:36:23.735Z,37.17
2022-12-04T01:38:50.764Z,62.35
2022-12-04T01:41:20.274Z,54.55
2022-12-04T01:44:10.044Z,47.78
2022-12-04T01:46:36.841Z,66.88
2022-12-04T01:49:04.959Z,56.95
2022-12-04T01:51:35.793Z,54.70
2022-12-04T01:54:06.252Z,44.58
2022-12-04T01:56:39.408Z,49.42
2022-12-04T01:59:07.796Z,36.08
2022-12-04T02:01:42.542Z,55.63
2022-12-04T02:04:09.363Z,43.25
2022-12-04T02:06:36.103Z,68.05
2022-12-04T02:09:04.133Z,48.08
2022-12-04T02:11:37.964Z,47.17
2022-12-04T02:14:14.003Z,41.05
2022-12-04T02:16:50.873Z,44.35
2022-12-04T02:19:47.317Z,57.22
2022-12-04T02:22:29.507Z,53.88
2022-12-04T02:25:04.621Z,38.70
2022-12-04T02:27:58.173Z,45.22
2022-12-04T02:30:27.253Z,59.47
2022-12-04T02:33:02.180Z,51.30
2022-12-04T02:35:33.283Z,47.90
2022-12-04T02:38:06.277Z,53.90
2022-12-04T02:40:41.463Z,45.03
2022-12-04T02:43:14.322Z,59.72
2022-12-04T02:45:45.681Z,48.22
2022-12-04T02:48:16.455Z,50.35
2022-12-04T02:50:44.133Z,52.90
2022-12-04T02:53:16.405Z,59.33
2022-12-04T02:55:46.740Z,58.60
2022-12-04T02:58:17.298Z,59.53
2022-12-04T03:00:46.967Z,51.65
2022-12-04T03:03:18.701Z,51.17
2022-12-04T03:05:53.876Z,61.53
2022-12-04T03:08:24.800Z,52.80
2022-12-04T03:10:55.648Z,60.70
2022-12-04T03:13:28.455Z,40.83
2022-12-04T03:16:01.995Z,57.80
2022-12-04T03:18:32.400Z,53.08
2022-12-04T03:21:03.908Z,59.58
2022-12-04T03:23:35.533Z,49.83
2022-12-04T03:26:07.216Z,47.60
2022-12-04T03:28:44.171Z,32.42
2022-12-04T03:31:11.653Z,66.28
2022-12-04T03:33:42.527Z,45.70
2022-12-04T03:36:16.671Z,39.35
2022-12-04T03:38:51.435Z,60.22
2022-12-04T03:41:25.079Z,49.53
2022-12-04T03:43:57.494Z,59.90
2022-12-04T03:46:29.626Z,44.28
2022-12-04T03:49:04.015Z,48.65
2022-12-04T03:51:35.140Z,35.03
2022-12-04T03:54:08.058Z,55.65
2022-12-04T03:56:38.781Z,45.58
2022-12-04T03:59:12.000Z,37.03
2022-12-04T04:01:42.107Z,59.85
2022-12-04T04:04:15.173Z,49.65
2022-12-04T04:06:47.168Z,40.90
2022-12-04T04:09:19.137Z,37.25
2022-12-04T04:11:49.609Z,51.80
2022-12-04T04:14:23.149Z,53.25
2022-12-04T04:16:57.540Z,46.28
2022-12-04T04:19:28.175Z,30.52
2022-12-04T04:21:56.260Z,40.35
2022-12-04T04:24:28.679Z,39.93
2022-12-04T04:26:57.920Z,44.10
2022-12-04T04:29:26.195Z,55.85
2022-12-04T04:31:59.372Z,61.95
2022-12-04T04:34:36.173Z,54.22
2022-12-04T04:37:11.292Z,48.70
2022-12-04T04:39:42.443Z,57.33
2022-12-04T04:42:17.503Z,53.05
2022-12-04T04:44:52.995Z,60.83
2022-12-04T04:47:27.249Z,61.63
2022-12-04T04:49:55.914Z,43.53
2022-12-04T04:52:24.054Z,35.17
2022-12-04T04:54:50.791Z,40.60
2022-12-04T04:57:26.563Z,45.22
2022-12-04T04:59:54.868Z,47.92
2022-12-04T05:02:21.814Z,53.55
2022-12-04T05:04:48.788Z,48.85
2022-12-04T05:07:15.525Z,60.10
2022-12-04T05:09:42.255Z,49.42
2022-12-04T05:12:09.272Z,54.75
2022-12-04T05:14:35.980Z,40.70
2022-12-04T05:17:10.922Z,52.40
2022-12-04T05:19:39.458Z,45.83
2022-12-04T05:22:06.167Z,53.75
2022-12-04T05:24:32.938Z,43.80
2022-12-04T05:26:59.636Z,56.88
2022-12-04T05:29:26.474Z,29.90
2022-12-04T05:31:53.567Z,49.15
2022-12-04T05:34:21.565Z,50.83
2022-12-04T05:36:48.282Z,37.00
2022-12-04T05:39:14.996Z,46.38
2022-12-04T05:41:41.719Z,58.30
2022-12-04T05:44:08.462Z,40.38
2022-12-04T05:46:35.266Z,58.78
2022-12-04T05:49:02.065Z,55.00
2022-12-04T05:51:30.129Z,53.28
2022-12-04T05:53:56.863Z,50.93
2022-12-04T05:56:23.563Z,52.13
2022-12-04T05:58:50.253Z,37.92
2022-12-04T06:01:19.465Z,54.90
2022-12-04T06:03:46.246Z,41.42
2022-12-04T06:06:20.823Z,47.53
2022-12-04T06:08:50.532Z,42.42
2022-12-04T06:11:20.729Z,47.42
2022-12-04T06:13:47.766Z,44.85
2022-12-04T06:16:15.485Z,42.13
2022-12-04T06:18:42.618Z,54.28
2022-12-04T06:21:10.217Z,58.15
2022-12-04T06:23:37.202Z,46.75
2022-12-04T06:26:07.481Z,45.72
2022-12-04T06:28:34.974Z,47.85
2022-12-04T06:31:02.735Z,40.38
2022-12-04T06:33:29.421Z,52.10
2022-12-04T06:36:00.601Z,50.33
2022-12-04T06:38:27.339Z,46.55
2022-12-04T06:40:54.045Z,38.20
2022-12-04T06:43:22.580Z,52.67
2022-12-04T06:45:49.484Z,43.63
2022-12-04T06:48:16.246Z,32.10
2022-12-04T06:50:42.972Z,46.55
2022-12-04T06:53:09.657Z,57.00
2022-12-04T06:55:36.337Z,42.28
2022-12-04T06:58:03.050Z,27.25
2022-12-04T07:00:31.114Z,32.47
2022-12-04T07:02:57.820Z,40.40
2022-12-04T07:05:24.544Z,50.47
2022-12-04T07:07:51.279Z,37.20
2022-12-04T07:10:18.256Z,49.38
2022-12-04T07:12:44.983Z,47.03
2022-12-04T07:15:11.660Z,39.00
2022-12-04T07:17:39.736Z,37.50
2022-12-04T07:20:07.560Z,25.87
2022-12-04T07:22:34.288Z,48.10
2022-12-04T07:25:00.957Z,46.78
2022-12-04T07:27:30.467Z,55.05
2022-12-04T07:29:57.492Z,54.03
2022-12-04T07:32:24.372Z,47.67
2022-12-04T07:34:52.697Z,47.95
2022-12-04T07:37:19.408Z,51.67
2022-12-04T07:39:46.119Z,52.00
2022-12-04T07:42:12.813Z,42.92
2022-12-04T07:44:39.493Z,34.72
2022-12-04T07:47:06.308Z,34.75
2022-12-04T07:49:33.192Z,42.45
2022-12-04T07:52:01.248Z,51.65
2022-12-04T07:54:28.011Z,41.27
2022-12-04T07:56:54.717Z,58.60
2022-12-04T07:59:21.449Z,29.58
2022-12-04T08:01:48.261Z,48.60
2022-12-04T08:04:15.175Z,34.17
2022-12-04T08:06:41.956Z,45.90
2022-12-04T08:09:10.515Z,43.85
2022-12-04T08:11:37.312Z,47.45
2022-12-04T08:14:05.565Z,54.15
2022-12-04T08:16:33.311Z,55.53
2022-12-04T08:19:00.774Z,37.10
2022-12-04T08:21:30.718Z,35.80
2022-12-04T08:23:58.821Z,39.45
2022-12-04T08:26:28.712Z,32.97
2022-12-04T08:28:56.265Z,35.78
2022-12-04T08:31:26.269Z,38.15
2022-12-04T08:33:55.279Z,43.78
2022-12-04T08:36:22.216Z,45.80
2022-12-04T08:38:49.510Z,41.13
2022-12-04T08:41:18.918Z,35.30
2022-12-04T08:43:47.459Z,39.17
2022-12-04T08:46:16.659Z,35.67
2022-12-04T08:48:43.669Z,45.90
2022-12-04T08:51:13.561Z,22.13
2022-12-04T08:53:40.520Z,31.73
2022-12-04T08:56:07.672Z,43.08
2022-12-04T08:58:34.674Z,46.45
2022-12-04T09:01:05.965Z,37.88
2022-12-04T09:03:33.407Z,41.97
2022-12-04T09:06:00.642Z,40.42
2022-12-04T09:08:27.743Z,40.83
2022-12-04T09:10:54.586Z,42.50
2022-12-04T09:13:21.286Z,37.08
2022-12-04T09:15:48.229Z,40.80
2022-12-04T09:18:16.348Z,40.80
2022-12-04T09:20:43.187Z,39.77
2022-12-04T09:23:09.891Z,49.42
2022-12-04T09:25:37.469Z,39.42
2022-12-04T09:28:04.841Z,26.83
2022-12-04T09:30:31.779Z,39.47
2022-12-04T09:32:58.502Z,35.25
2022-12-04T09:35:26.520Z,33.05
2022-12-04T09:37:53.216Z,45.92
2022-12-04T09:40:27.485Z,40.47
2022-12-04T09:43:04.105Z,36.35
2022-12-04T09:45:40.120Z,35.53
2022-12-04T09:48:10.588Z,28.88
2022-12-04T09:50:42.296Z,37.03
2022-12-04T09:53:13.612Z,38.03
2022-12-04T09:55:47.576Z,38.13
2022-12-04T09:58:17.833Z,34.10
2022-12-04T10:00:47.127Z,23.98
2022-12-04T10:03:17.704Z,37.58
2022-12-04T10:05:54.575Z,25.25
2022-12-04T10:08:23.610Z,29.70
2022-12-04T10:13:47.413Z,30.98
2022-12-04T10:16:22.586Z,29.20
2022-12-04T10:18:56.136Z,24.95
2022-12-04T10:21:36.312Z,36.42
2022-12-04T10:24:16.330Z,26.00
2022-12-04T10:26:46.565Z,28.38
2022-12-04T10:29:18.290Z,30.17
2022-12-04T10:31:45.821Z,32.17
2022-12-04T10:34:17.808Z,31.77
2022-12-04T10:36:50.332Z,30.70
2022-12-04T10:39:22.849Z,25.88
2022-12-04T10:41:55.457Z,28.60
2022-12-04T10:44:22.255Z,19.10
2022-12-04T10:46:50.746Z,19.92
2022-12-04T10:49:19.602Z,27.25
2022-12-04T10:51:48.307Z,31.30
2022-12-04T10:54:21.191Z,22.55
2022-12-04T10:56:52.936Z,25.73
2022-12-04T10:59:19.631Z,24.45
2022-12-04T11:01:46.806Z,23.23
2022-12-04T11:04:22.058Z,19.88
2022-12-04T11:06:51.308Z,28.30
2022-12-04T11:09:22.117Z,24.70
2022-12-04T11:11:49.169Z,24.00
2022-12-04T11:14:18.121Z,27.60
2022-12-04T11:16:46.532Z,23.10
2022-12-04T11:19:22.423Z,21.00
2022-12-04T11:21:51.382Z,17.77
2022-12-04T11:24:22.328Z,23.65
2022-12-04T11:26:50.382Z,22.15
2022-12-04T11:29:19.186Z,21.33
2022-12-04T11:31:49.994Z,22.92
2022-12-04T11:34:19.881Z,26.88
2022-12-04T11:36:53.457Z,21.92
2022-12-04T11:39:26.949Z,17.67
2022-12-04T11:42:00.725Z,19.65
2022-12-04T11:44:29.575Z,23.05
2022-12-04T11:46:59.691Z,13.93
2022-12-04T11:49:27.193Z,24.88
2022-12-04T11:52:07.838Z,17.98
2022-12-04T11:54:41.876Z,17.80
2022-12-04T11:57:18.964Z,24.05
2022-12-04T12:00:08.975Z,17.48
2022-12-04T12:03:02.647Z,24.50
2022-12-04T12:06:14.354Z,21.77
2022-12-04T12:08:58.188Z,25.92
2022-12-04T12:11:30.363Z,21.98
2022-12-04T12:14:08.201Z,20.48
2022-12-04T12:16:48.454Z,19.08
2022-12-04T12:19:43.170Z,21.48
2022-12-04T12:22:23.101Z,22.45
2022-12-04T12:24:58.719Z,18.33
2022-12-04T12:27:43.487Z,21.10
2022-12-04T12:30:15.926Z,21.88
2022-12-04T12:33:04.291Z,23.77
2022-12-04T12:35:34.921Z,21.75
2022-12-04T12:38:05.190Z,23.50
2022-12-04T12:40:35.146Z,21.38
2022-12-04T12:43:07.198Z,25.70
2022-12-04T12:45:43.020Z,21.88
2022-12-04T12:48:23.391Z,17.67
2022-12-04T12:51:15.047Z,21.33
2022-12-04T12:53:45.426Z,23.88
2022-12-04T12:56:13.366Z,17.13
2022-12-04T12:58:44.028Z,21.90
2022-12-04T13:01:16.087Z,21.13
2022-12-04T13:03:54.709Z,20.77
2022-12-04T13:06:28.548Z,18.45
2022-12-04T13:09:05.063Z,16.70
2022-12-04T13:11:32.945Z,17.58
2022-12-04T13:14:01.540Z,19.70
2022-12-04T13:16:34.512Z,22.13
2022-12-04T13:19:11.233Z,22.48
2022-12-04T13:21:43.235Z,20.73
2022-12-04T13:24:44.988Z,13.50
2022-12-04T13:27:17.325Z,19.15
2022-12-04T13:30:03.403Z,18.52
2022-12-04T13:32:51.185Z,20.77
2022-12-04T13:35:29.513Z,15.30
2022-12-04T13:38:13.232Z,15.70
2022-12-04T13:40:42.766Z,17.55
2022-12-04T13:43:16.760Z,20.50
2022-12-04T13:45:45.790Z,22.25
2022-12-04T13:50:41.007Z,18.40
2022-12-04T13:53:32.979Z,18.85
2022-12-04T13:56:06.021Z,21.08
2022-12-04T13:58:35.557Z,13.00
2022-12-04T14:01:05.750Z,16.52
2022-12-04T14:03:38.813Z,19.75
2022-12-04T14:06:21.849Z,18.92
2022-12-04T14:08:54.367Z,20.15
2022-12-04T14:11:21.176Z,24.20
2022-12-04T14:13:50.776Z,13.02
2022-12-04T14:16:21.249Z,21.67
2022-12-04T14:18:50.923Z,17.50
2022-12-04T14:21:19.049Z,15.70
2022-12-04T14:23:46.276Z,17.97
2022-12-04T14:26:37.450Z,14.50
2022-12-04T14:29:36.223Z,19.63
2022-12-04T14:32:09.467Z,17.60
2022-12-04T14:34:37.448Z,20.85
2022-12-04T14:37:06.604Z,19.77
2022-12-04T14:39:36.053Z,16.40
2022-12-04T14:42:12.449Z,17.42
2022-12-04T14:44:40.073Z,21.15
2022-12-04T14:47:19.113Z,22.70
2022-12-04T14:49:58.122Z,22.30
2022-12-04T14:55:06.884Z,23.45
2022-12-04T14:57:45.890Z,19.52
2022-12-04T15:02:44.617Z,20.45
2022-12-04T15:05:16.592Z,30.13
2022-12-04T15:07:48.612Z,25.45
2022-12-04T15:10:20.057Z,22.52
2022-12-04T15:12:49.123Z,18.13
2022-12-04T15:17:44.221Z,18.90
2022-12-04T15:20:15.126Z,25.60
2022-12-04T15:22:42.577Z,21.92
2022-12-04T15:25:18.126Z,29.98
2022-12-04T15:27:46.316Z,22.63
2022-12-04T15:30:18.632Z,31.10
2022-12-04T15:32:46.311Z,25.67
2022-12-04T15:35:22.532Z,32.92
2022-12-04T15:37:49.466Z,34.10
2022-12-04T15:40:22.277Z,25.95
2022-12-04T15:42:49.418Z,20.40
2022-12-04T15:45:28.423Z,29.67
2022-12-04T15:50:24.161Z,19.35
2022-12-04T15:52:59.502Z,24.80
2022-12-04T15:55:29.392Z,31.02
2022-12-04T15:57:58.948Z,25.05
2022-12-04T16:00:28.344Z,27.35
2022-12-04T16:02:56.062Z,34.20
2022-12-04T16:05:32.174Z,28.17
2022-12-04T16:08:00.627Z,26.27
2022-12-04T16:10:30.884Z,32.67
2022-12-04T16:12:59.747Z,31.75
2022-12-04T16:15:34.588Z,38.25
2022-12-04T16:18:01.623Z,32.63
2022-12-04T16:20:28.340Z,38.78
2022-12-04T16:22:55.253Z,31.40
2022-12-04T16:25:21.988Z,34.55
2022-12-04T16:27:50.138Z,35.20
2022-12-04T16:30:17.233Z,32.37
2022-12-04T16:32:43.935Z,40.97
2022-12-04T16:35:15.465Z,34.17
2022-12-04T16:37:42.188Z,31.95
2022-12-04T16:40:10.597Z,31.40
2022-12-04T16:42:37.305Z,36.45
2022-12-04T16:45:21.266Z,37.17
2022-12-04T16:47:48.477Z,36.88
2022-12-04T16:50:15.458Z,37.13
2022-12-04T16:52:42.210Z,32.15
2022-12-04T16:55:18.711Z,28.50
2022-12-04T16:57:45.802Z,40.70
2022-12-04T17:00:15.929Z,39.55
2022-12-04T17:02:43.224Z,38.88
2022-12-04T17:05:18.944Z,36.55
2022-12-04T17:07:46.041Z,39.17
2022-12-04T17:10:13.317Z,38.40
2022-12-04T17:12:40.073Z,35.42
2022-12-04T17:15:09.533Z,37.03
2022-12-04T17:17:37.872Z,33.97
2022-12-04T17:20:06.427Z,28.35
2022-12-04T17:22:33.127Z,31.33
2022-12-04T17:25:00.129Z,40.45
2022-12-04T17:27:27.638Z,39.33
2022-12-04T17:29:54.338Z,29.75
2022-12-04T17:32:21.136Z,31.30
2022-12-04T17:34:49.209Z,35.20
2022-12-04T17:37:15.918Z,45.13
2022-12-04T17:39:42.953Z,38.55
2022-12-04T17:42:10.037Z,31.52
2022-12-04T17:44:36.846Z,31.35
2022-12-04T17:47:03.836Z,38.15
2022-12-04T17:49:30.601Z,36.53
2022-12-04T17:51:58.652Z,43.67
2022-12-04T17:54:25.338Z,38.07
2022-12-04T17:56:56.226Z,36.20
2022-12-04T17:59:24.637Z,24.92
2022-12-04T18:01:51.692Z,32.47
2022-12-04T18:04:19.259Z,37.60
2022-12-04T18:06:46.805Z,38.97
2022-12-04T18:09:16.669Z,34.40
2022-12-04T18:11:45.640Z,31.95
2022-12-04T18:16:41.783Z,33.25
2022-12-04T18:19:08.769Z,28.75
2022-12-04T18:21:35.692Z,27.83
2022-12-04T18:24:04.057Z,34.42
2022-12-04T18:26:35.387Z,31.42
2022-12-04T18:29:02.312Z,33.50
2022-12-04T18:31:29.189Z,23.70
2022-12-04T18:33:56.204Z,25.65
2022-12-04T18:36:24.922Z,26.30
2022-12-04T18:38:54.501Z,30.48
2022-12-04T18:41:21.666Z,30.65
2022-12-04T18:43:49.997Z,20.10
2022-12-04T18:46:17.987Z,34.90
2022-12-04T18:48:46.159Z,32.13
2022-12-04T18:51:19.121Z,28.47
2022-12-04T18:53:46.760Z,31.58
2022-12-04T18:56:13.634Z,32.80
2022-12-04T18:58:40.462Z,28.50
2022-12-04T19:01:10.901Z,26.35
2022-12-04T19:03:38.119Z,36.20
2022-12-04T19:06:05.360Z,28.98
2022-12-04T19:08:35.006Z,32.67
2022-12-04T19:11:08.339Z,23.75
2022-12-04T19:13:35.849Z,27.88
2022-12-04T19:16:03.196Z,27.83
2022-12-04T19:18:31.663Z,20.83
2022-12-04T19:20:58.352Z,21.70
2022-12-04T19:23:25.069Z,25.90
2022-12-04T19:25:55.912Z,20.38
2022-12-04T19:28:22.827Z,21.08
2022-12-04T19:30:49.826Z,27.88
2022-12-04T19:33:19.471Z,26.98
2022-12-04T19:35:57.884Z,30.17
2022-12-04T19:38:25.066Z,24.73
2022-12-04T19:41:03.031Z,24.60
2022-12-04T19:43:29.797Z,29.85
2022-12-04T19:45:56.558Z,29.35
2022-12-04T19:48:23.408Z,23.98
2022-12-04T19:50:50.170Z,32.28
2022-12-04T19:53:18.461Z,34.05
2022-12-04T19:55:45.186Z,29.73
2022-12-04T19:58:12.209Z,33.97
2022-12-04T20:00:38.969Z,32.15
2022-12-04T20:03:05.747Z,34.17
2022-12-04T20:05:36.061Z,33.20
2022-12-04T20:10:30.191Z,32.08
2022-12-04T20:12:56.912Z,31.98
2022-12-04T20:15:23.662Z,34.80
2022-12-04T20:17:50.411Z,28.25
2022-12-04T20:20:17.291Z,38.30
2022-12-04T20:22:44.033Z,34.97
2022-12-04T20:25:10.781Z,29.58
2022-12-04T20:27:38.835Z,37.13
2022-12-04T20:30:07.163Z,35.97
2022-12-04T20:32:33.952Z,21.63
2022-12-04T20:35:00.675Z,37.38
2022-12-04T20:37:27.422Z,36.95
2022-12-04T20:39:54.370Z,35.78
2022-12-04T20:42:21.298Z,27.92
2022-12-04T20:44:49.328Z,34.80
2022-12-04T20:47:16.008Z,33.50
2022-12-04T20:49:42.712Z,34.58
2022-12-04T20:52:09.441Z,22.30
2022-12-04T20:54:41.417Z,35.95
2022-12-04T20:57:11.397Z,37.88
2022-12-04T20:59:38.409Z,32.60
2022-12-04T21:02:06.600Z,35.83
2022-12-04T21:04:39.274Z,36.17
2022-12-04T21:07:06.096Z,33.88
2022-12-04T21:09:33.040Z,31.92
2022-12-04T21:11:59.809Z,36.72
2022-12-04T21:14:28.450Z,35.65
2022-12-04T21:16:55.219Z,39.25
2022-12-04T21:19:23.425Z,32.22
2022-12-04T21:21:50.785Z,33.03
2022-12-04T21:24:19.379Z,37.47
2022-12-04T21:26:46.721Z,40.70
2022-12-04T21:29:14.324Z,36.83
2022-12-04T21:31:41.498Z,35.22
2022-12-04T21:34:11.348Z,42.03
2022-12-04T21:36:39.492Z,37.35
2022-12-04T21:39:07.173Z,39.07
2022-12-04T21:41:33.911Z,29.98
2022-12-04T21:44:00.672Z,43.22
2022-12-04T21:46:27.439Z,42.22
2022-12-04T21:48:54.382Z,36.85
2022-12-04T21:51:48.291Z,37.60
2022-12-04T21:54:09.559Z,38.83
2022-12-04T21:56:36.648Z,45.22
2022-12-04T21:59:04.129Z,39.10
2022-12-04T22:01:30.960Z,33.10
2022-12-04T22:03:57.971Z,38.70
2022-12-04T22:06:26.177Z,40.28
2022-12-04T22:08:53.103Z,38.72
2022-12-04T22:11:21.704Z,39.47
2022-12-04T22:13:48.470Z,34.65
2022-12-04T22:16:17.015Z,42.47
2022-12-04T22:18:43.981Z,37.75
2022-12-04T22:21:12.819Z,38.35
2022-12-04T22:23:40.034Z,38.58
2022-12-04T22:26:08.108Z,38.88
2022-12-04T22:28:36.274Z,34.57
2022-12-04T22:31:03.589Z,37.87
2022-12-04T22:33:30.484Z,37.70
2022-12-04T22:36:02.179Z,37.67
2022-12-04T22:38:28.876Z,39.35
2022-12-04T22:40:58.564Z,38.10
2022-12-04T22:43:25.253Z,34.92
2022-12-04T22:45:53.633Z,40.33
2022-12-04T22:48:20.459Z,43.97
2022-12-04T22:50:55.834Z,43.95
2022-12-04T22:53:22.657Z,39.45
2022-12-04T22:55:49.468Z,41.65
2022-12-04T22:58:16.187Z,35.90
2022-12-04T23:00:42.915Z,40.45
2022-12-04T23:03:10.985Z,32.78
2022-12-04T23:05:37.732Z,40.73
2022-12-04T23:08:04.832Z,41.85
2022-12-04T23:10:31.578Z,40.55
2022-12-04T23:12:58.372Z,40.22
2022-12-04T23:15:25.112Z,41.85
2022-12-04T23:17:51.791Z,42.85
2022-12-04T23:20:19.839Z,42.40
2022-12-04T23:22:46.560Z,43.17
2022-12-04T23:25:13.362Z,40.50
2022-12-04T23:27:40.028Z,39.85
2022-12-04T23:30:08.234Z,44.15
2022-12-04T23:32:35.079Z,37.55
2022-12-04T23:35:01.823Z,41.67
2022-12-04T23:37:29.877Z,39.88
2022-12-04T23:39:57.032Z,42.70
2022-12-04T23:42:23.961Z,39.92
2022-12-04T23:44:50.674Z,40.63
2022-12-04T23:47:17.435Z,41.95
2022-12-04T23:49:44.207Z,39.28
2022-12-04T23:52:10.933Z,38.08
2022-12-04T23:54:39.032Z,40.63
2022-12-04T23:57:05.915Z,42.23
2022-12-04T23:59:32.663Z,39.03
